createdAt,value
2023-02-06T00:01:46.792Z,34.40
2023-02-06T00:04:14.939Z,32.20
2023-02-06T00:06:43.360Z,31.40
2023-02-06T00:09:11.618Z,30.80
2023-02-06T00:25:25.522Z,36.70
2023-02-06T00:27:53.271Z,37.70
2023-02-06T00:30:21.353Z,36.30
2023-02-06T00:32:49.161Z,29.80
2023-02-06T00:35:16.965Z,41.40
2023-02-06T00:37:44.771Z,37.10
2023-02-06T00:40:12.564Z,37.50
2023-02-06T00:42:40.547Z,38.80
2023-02-06T00:45:09.128Z,38.10
2023-02-06T00:47:37.086Z,39.70
2023-02-06T00:50:05.944Z,33.20
2023-02-06T00:52:33.704Z,35.00
2023-02-06T00:55:01.484Z,36.20
2023-02-06T00:57:30.209Z,34.10
2023-02-06T00:59:58.117Z,38.70
2023-02-06T01:02:27.497Z,36.50
2023-02-06T01:04:55.260Z,33.70
2023-02-06T01:07:23.083Z,31.80
2023-02-06T01:09:50.936Z,29.60
2023-02-06T01:12:18.701Z,35.40
2023-02-06T01:14:47.618Z,35.10
2023-02-06T01:17:15.356Z,29.40
2023-02-06T01:19:43.296Z,32.50
2023-02-06T01:22:11.048Z,26.00
2023-02-06T01:24:38.871Z,32.20
2023-02-06T01:27:06.716Z,29.00
2023-02-06T01:29:34.477Z,26.00
2023-02-06T01:32:03.508Z,30.50
2023-02-06T01:34:31.272Z,38.70
2023-02-06T01:36:59.067Z,30.40
2023-02-06T01:39:26.892Z,29.00
2023-02-06T01:41:54.661Z,36.00
2023-02-06T01:44:26.251Z,34.60
2023-02-06T01:46:57.133Z,35.40
2023-02-06T01:49:28.769Z,32.60
2023-02-06T01:52:08.438Z,29.90
2023-02-06T01:54:36.300Z,31.00
2023-02-06T01:57:08.136Z,35.80
2023-02-06T01:59:36.863Z,28.50
2023-02-06T02:02:04.922Z,34.40
2023-02-06T02:04:33.783Z,35.90
2023-02-06T02:07:15.303Z,34.40
2023-02-06T02:09:43.693Z,21.00
2023-02-06T02:12:12.619Z,34.00
2023-02-06T02:14:42.802Z,26.10
2023-02-06T02:17:45.839Z,32.50
2023-02-06T02:20:43.805Z,34.40
2023-02-06T02:23:30.557Z,21.80
2023-02-06T02:28:37.578Z,28.30
2023-02-06T02:32:02.430Z,26.30
2023-02-06T02:34:44.981Z,26.80
2023-02-06T02:37:19.592Z,26.70
2023-02-06T02:39:53.324Z,36.70
2023-02-06T02:42:32.375Z,27.30
2023-02-06T02:45:09.637Z,28.20
2023-02-06T02:48:11.201Z,28.90
2023-02-06T02:50:40.278Z,32.80
2023-02-06T02:53:08.481Z,32.10
2023-02-06T02:55:36.917Z,39.10
2023-02-06T02:58:12.188Z,33.10
2023-02-06T03:00:47.570Z,33.80
2023-02-06T03:03:22.049Z,28.90
2023-02-06T03:06:25.934Z,31.20
2023-02-06T03:08:59.708Z,33.80
2023-02-06T03:11:27.992Z,32.60
2023-02-06T03:14:02.720Z,29.30
2023-02-06T03:16:41.020Z,37.30
2023-02-06T03:19:14.692Z,35.70
2023-02-06T03:21:45.387Z,33.10
2023-02-06T03:24:24.560Z,36.30
2023-02-06T03:26:58.801Z,49.50
2023-02-06T03:29:29.216Z,38.30
2023-02-06T03:32:05.615Z,28.90
2023-02-06T03:34:57.691Z,34.90
2023-02-06T03:37:27.023Z,39.80
2023-02-06T03:39:57.883Z,34.20
2023-02-06T03:42:28.431Z,27.20
2023-02-06T03:45:15.623Z,28.40
2023-02-06T03:47:46.540Z,35.40
2023-02-06T03:50:15.996Z,33.30
2023-02-06T03:52:48.356Z,12.50
2023-02-06T03:55:22.907Z,20.10
2023-02-06T03:58:05.628Z,34.40
2023-02-06T04:00:34.358Z,21.80
2023-02-06T04:03:03.817Z,28.20
2023-02-06T04:05:31.561Z,32.00
2023-02-06T04:07:59.402Z,35.90
2023-02-06T04:10:27.313Z,39.20
2023-02-06T04:12:55.797Z,45.20
2023-02-06T04:15:23.921Z,43.40
2023-02-06T04:18:00.105Z,39.70
2023-02-06T04:20:29.834Z,40.30
2023-02-06T04:22:59.237Z,32.80
2023-02-06T04:25:27.079Z,36.90
2023-02-06T04:27:55.529Z,37.20
2023-02-06T04:30:23.475Z,36.40
2023-02-06T04:32:51.304Z,43.70
2023-02-06T04:35:19.201Z,41.40
2023-02-06T04:37:46.890Z,34.70
2023-02-06T04:40:14.552Z,37.10
2023-02-06T04:42:42.945Z,37.90
2023-02-06T04:45:10.750Z,25.40
2023-02-06T04:47:38.562Z,38.10
2023-02-06T04:50:07.737Z,33.10
2023-02-06T04:52:35.566Z,31.00
2023-02-06T04:55:03.628Z,38.50
2023-02-06T04:57:31.378Z,39.70
2023-02-06T04:59:59.157Z,35.20
2023-02-06T05:02:26.929Z,41.90
2023-02-06T05:04:54.722Z,36.30
2023-02-06T05:07:22.519Z,32.30
2023-02-06T05:09:50.400Z,44.80
2023-02-06T05:24:34.299Z,44.80
2023-02-06T05:27:02.152Z,42.90
2023-02-06T05:29:29.857Z,41.70
2023-02-06T05:31:57.601Z,36.80
2023-02-06T05:34:25.567Z,45.00
2023-02-06T05:36:53.329Z,49.10
2023-02-06T05:39:21.191Z,53.80
2023-02-06T05:41:48.951Z,47.90
2023-02-06T05:44:16.796Z,44.50
2023-02-06T05:46:44.614Z,49.20
2023-02-06T05:49:12.306Z,48.00
2023-02-06T05:51:40.232Z,41.90
2023-02-06T05:54:08.067Z,46.20
2023-02-06T05:56:35.830Z,47.10
2023-02-06T05:59:03.601Z,44.80
2023-02-06T06:01:31.404Z,37.00
2023-02-06T06:03:59.633Z,32.40
2023-02-06T06:06:27.421Z,38.10
2023-02-06T06:08:55.141Z,35.50
2023-02-06T06:11:22.907Z,47.60
2023-02-06T06:13:50.582Z,40.50
2023-02-06T06:16:18.436Z,46.70
2023-02-06T06:18:46.321Z,37.90
2023-02-06T06:21:14.342Z,47.00
2023-02-06T06:23:42.186Z,31.40
2023-02-06T06:26:10.358Z,43.90
2023-02-06T06:28:38.940Z,23.90
2023-02-06T06:31:11.711Z,25.90
2023-02-06T06:33:40.082Z,43.20
2023-02-06T06:36:10.056Z,33.60
2023-02-06T06:38:38.404Z,24.80
2023-02-06T06:41:06.629Z,40.80
2023-02-06T06:43:34.872Z,29.20
2023-02-06T06:46:02.751Z,26.10
2023-02-06T06:48:31.423Z,39.10
2023-02-06T06:50:59.230Z,48.50
2023-02-06T06:53:27.312Z,28.60
2023-02-06T06:55:55.057Z,15.50
2023-02-06T06:58:22.795Z,30.40
2023-02-06T07:00:53.281Z,13.30
2023-02-06T07:03:21.114Z,33.00
2023-02-06T07:05:48.919Z,30.20
2023-02-06T07:08:16.733Z,37.40
2023-02-06T07:10:44.679Z,37.90
2023-02-06T07:13:12.947Z,17.50
2023-02-06T07:15:41.012Z,33.50
2023-02-06T07:18:11.570Z,16.90
2023-02-06T07:20:39.471Z,30.70
2023-02-06T07:23:07.331Z,22.50
2023-02-06T07:25:35.588Z,20.60
2023-02-06T07:28:03.618Z,23.20
2023-02-06T07:30:31.461Z,31.40
2023-02-06T07:32:59.297Z,18.30
2023-02-06T07:35:27.122Z,28.90
2023-02-06T07:37:55.317Z,20.20
2023-02-06T07:40:25.111Z,34.60
2023-02-06T07:42:52.973Z,27.30
2023-02-06T07:45:26.057Z,40.30
2023-02-06T07:47:53.921Z,36.50
2023-02-06T07:50:21.654Z,22.80
2023-02-06T07:52:49.550Z,42.80
2023-02-06T07:55:17.528Z,37.20
2023-02-06T07:57:45.243Z,28.30
2023-02-06T08:00:13.508Z,31.00
2023-02-06T08:02:42.069Z,16.90
2023-02-06T08:05:10.148Z,35.60
2023-02-06T08:07:37.958Z,34.90
2023-02-06T08:10:05.992Z,28.00
2023-02-06T08:12:33.743Z,19.00
2023-02-06T08:15:01.586Z,32.90
2023-02-06T08:17:29.430Z,15.10
2023-02-06T08:19:57.345Z,31.70
2023-02-06T08:22:32.285Z,18.20
2023-02-06T08:25:06.965Z,19.90
2023-02-06T08:27:34.922Z,21.80
2023-02-06T08:30:02.807Z,20.40
2023-02-06T08:32:34.987Z,37.90
2023-02-06T08:35:02.901Z,28.90
2023-02-06T08:37:32.282Z,27.00
2023-02-06T08:40:00.085Z,26.00
2023-02-06T08:42:27.937Z,28.10
2023-02-06T08:44:55.766Z,18.10
2023-02-06T08:47:23.663Z,23.30
2023-02-06T08:49:51.660Z,29.50
2023-02-06T08:52:19.481Z,16.20
2023-02-06T08:54:47.200Z,25.20
2023-02-06T08:57:15.005Z,27.90
2023-02-06T08:59:43.009Z,24.50
2023-02-06T09:02:11.984Z,18.80
2023-02-06T09:04:39.879Z,25.90
2023-02-06T09:07:07.655Z,22.70
2023-02-06T09:09:35.700Z,34.20
2023-02-06T09:12:04.095Z,37.10
2023-02-06T09:14:32.342Z,37.70
2023-02-06T09:17:00.195Z,34.20
2023-02-06T09:19:28.258Z,38.70
2023-02-06T09:21:56.891Z,37.60
2023-02-06T09:24:25.398Z,26.90
2023-02-06T09:26:59.806Z,24.70
2023-02-06T09:29:31.900Z,24.20
2023-02-06T09:32:00.277Z,33.30
2023-02-06T09:34:28.476Z,19.00
2023-02-06T09:36:57.924Z,19.30
2023-02-06T09:39:26.266Z,28.70
2023-02-06T09:42:04.694Z,32.70
2023-02-06T09:44:36.929Z,31.20
2023-02-06T09:47:22.047Z,17.10
2023-02-06T09:50:07.723Z,27.20
2023-02-06T09:52:54.597Z,23.80
2023-02-06T09:55:31.219Z,21.60
2023-02-06T09:58:11.179Z,19.50
2023-02-06T10:01:02.191Z,23.90
2023-02-06T10:03:59.277Z,33.30
2023-02-06T10:06:47.270Z,31.60
2023-02-06T10:09:24.605Z,22.00
2023-02-06T10:12:00.798Z,27.00
2023-02-06T10:14:39.038Z,17.50
2023-02-06T10:17:16.419Z,12.40
2023-02-06T10:19:59.637Z,23.80
2023-02-06T10:22:44.544Z,22.90
2023-02-06T10:25:22.228Z,51.70
2023-02-06T10:27:56.734Z,36.50
2023-02-06T10:30:31.300Z,40.80
2023-02-06T10:33:25.973Z,38.00
2023-02-06T10:36:08.006Z,32.60
2023-02-06T10:38:44.858Z,37.80
2023-02-06T10:42:03.578Z,24.70
2023-02-06T10:44:50.817Z,32.10
2023-02-06T10:47:36.253Z,42.30
2023-02-06T10:50:45.429Z,30.40
2023-02-06T10:53:37.126Z,37.80
2023-02-06T10:56:18.440Z,36.20
2023-02-06T10:58:53.066Z,41.00
2023-02-06T11:01:26.321Z,40.00
2023-02-06T11:04:04.517Z,44.90
2023-02-06T11:06:32.779Z,36.40
2023-02-06T11:09:00.670Z,52.20
2023-02-06T11:11:31.568Z,42.10
2023-02-06T11:14:14.067Z,26.70
2023-02-06T11:16:44.142Z,37.70
2023-02-06T11:19:26.599Z,38.70
2023-02-06T11:22:28.257Z,42.80
2023-02-06T11:25:05.977Z,41.80
2023-02-06T11:27:35.819Z,35.20
2023-02-06T11:30:23.857Z,40.50
2023-02-06T11:33:04.466Z,39.20
2023-02-06T11:35:47.417Z,38.10
2023-02-06T11:38:21.158Z,36.90
2023-02-06T11:41:01.987Z,35.40
2023-02-06T11:43:44.709Z,32.80
2023-02-06T11:46:15.445Z,21.50
2023-02-06T11:48:48.371Z,21.30
2023-02-06T11:51:16.938Z,14.60
2023-02-06T11:54:03.226Z,17.70
2023-02-06T11:56:31.796Z,21.00
2023-02-06T11:59:23.221Z,22.40
2023-02-06T12:01:51.058Z,18.50
2023-02-06T12:04:29.086Z,33.60
2023-02-06T12:07:16.469Z,34.70
2023-02-06T12:09:44.283Z,26.80
2023-02-06T12:12:20.430Z,17.60
2023-02-06T12:14:55.179Z,28.40
2023-02-06T12:17:36.078Z,28.10
2023-02-06T12:20:26.470Z,33.30
2023-02-06T12:22:59.088Z,42.00
2023-02-06T12:25:30.769Z,46.70
2023-02-06T12:28:11.819Z,37.10
2023-02-06T12:30:47.955Z,23.40
2023-02-06T12:33:21.149Z,41.70
2023-02-06T12:35:55.642Z,45.30
2023-02-06T12:38:51.160Z,45.20
2023-02-06T12:41:50.211Z,29.00
2023-02-06T12:44:36.858Z,34.20
2023-02-06T12:47:20.090Z,38.40
2023-02-06T12:49:59.852Z,27.20
2023-02-06T12:52:39.492Z,36.80
2023-02-06T12:55:22.475Z,39.80
2023-02-06T12:57:50.975Z,33.00
2023-02-06T13:00:38.269Z,32.80
2023-02-06T13:03:28.629Z,52.40
2023-02-06T13:06:04.274Z,46.30
2023-02-06T13:08:43.321Z,45.80
2023-02-06T13:11:39.129Z,51.80
2023-02-06T13:14:17.881Z,49.40
2023-02-06T13:16:50.833Z,51.60
2023-02-06T13:19:31.854Z,58.90
2023-02-06T13:22:13.076Z,48.10
2023-02-06T13:24:42.488Z,50.30
2023-02-06T13:27:38.240Z,54.80
2023-02-06T13:30:29.471Z,45.40
2023-02-06T13:33:13.918Z,40.10
2023-02-06T13:36:09.991Z,44.60
2023-02-06T13:38:38.856Z,37.70
2023-02-06T13:41:12.728Z,38.70
2023-02-06T13:44:17.598Z,46.30
2023-02-06T13:47:08.582Z,29.10
2023-02-06T13:49:57.997Z,45.40
2023-02-06T13:52:34.760Z,43.60
2023-02-06T13:55:12.074Z,36.30
2023-02-06T13:58:17.487Z,36.90
2023-02-06T14:00:49.689Z,37.20
2023-02-06T14:03:31.598Z,33.90
2023-02-06T14:06:08.757Z,39.70
2023-02-06T14:08:45.389Z,37.30
2023-02-06T14:11:53.224Z,37.70
2023-02-06T14:14:32.990Z,40.10
2023-02-06T14:17:09.860Z,42.50
2023-02-06T14:19:53.184Z,40.90
2023-02-06T14:22:42.293Z,37.00
2023-02-06T14:25:42.182Z,45.00
2023-02-06T14:28:26.817Z,42.00
2023-02-06T14:31:06.702Z,38.50
2023-02-06T14:33:56.753Z,43.20
2023-02-06T14:36:30.305Z,36.80
2023-02-06T14:39:35.748Z,38.80
2023-02-06T14:42:13.377Z,31.50
2023-02-06T14:44:42.851Z,25.60
2023-02-06T14:47:20.595Z,31.40
2023-02-06T14:49:49.563Z,31.40
2023-02-06T14:52:24.376Z,30.50
2023-02-06T14:54:52.612Z,41.60
2023-02-06T14:57:26.406Z,35.30
2023-02-06T15:00:04.393Z,30.00
2023-02-06T15:02:35.094Z,31.50
2023-02-06T15:05:04.925Z,36.50
2023-02-06T15:07:35.885Z,40.60
2023-02-06T15:10:08.596Z,44.50
2023-02-06T15:12:38.276Z,40.60
2023-02-06T15:15:19.301Z,49.50
2023-02-06T15:18:07.542Z,45.40
2023-02-06T15:20:40.340Z,49.80
2023-02-06T15:23:17.973Z,45.80
2023-02-06T15:25:53.608Z,41.60
2023-02-06T15:28:25.372Z,41.90
2023-02-06T15:30:58.982Z,48.20
2023-02-06T15:33:36.030Z,48.30
2023-02-06T15:36:04.416Z,41.60
2023-02-06T15:38:33.641Z,38.70
2023-02-06T15:41:06.729Z,43.20
2023-02-06T15:43:35.888Z,48.80
2023-02-06T15:46:05.711Z,42.10
2023-02-06T15:48:54.512Z,47.70
2023-02-06T15:51:27.209Z,44.40
2023-02-06T15:54:18.101Z,41.20
2023-02-06T15:56:54.825Z,40.10
2023-02-06T15:59:25.410Z,44.90
2023-02-06T16:01:55.618Z,40.80
2023-02-06T16:04:37.297Z,43.50
2023-02-06T16:07:24.433Z,43.40
2023-02-06T16:10:04.332Z,41.70
2023-02-06T16:12:37.970Z,48.40
2023-02-06T16:15:32.833Z,45.50
2023-02-06T16:18:18.327Z,45.40
2023-02-06T16:20:46.764Z,47.40
2023-02-06T16:23:22.776Z,44.60
2023-02-06T16:26:30.559Z,43.90
2023-02-06T16:29:24.634Z,45.20
2023-02-06T16:32:12.663Z,41.20
2023-02-06T16:34:43.300Z,70.50
2023-02-06T16:37:17.185Z,63.80
2023-02-06T16:39:45.886Z,56.40
2023-02-06T16:42:25.788Z,56.00
2023-02-06T16:44:59.298Z,54.50
2023-02-06T16:47:27.983Z,55.00
2023-02-06T16:49:56.086Z,55.90
2023-02-06T16:52:30.503Z,50.60
2023-02-06T16:54:59.158Z,57.10
2023-02-06T16:57:26.834Z,51.90
2023-02-06T16:59:54.678Z,49.90
2023-02-06T17:02:23.772Z,59.60
2023-02-06T17:04:52.011Z,63.50
2023-02-06T17:07:24.383Z,57.30
2023-02-06T17:09:54.034Z,69.70
2023-02-06T17:12:22.826Z,111.20
2023-02-06T17:14:50.846Z,96.40
2023-02-06T17:17:21.802Z,59.20
2023-02-06T17:19:50.675Z,67.20
2023-02-06T17:22:18.885Z,70.30
2023-02-06T17:24:46.968Z,67.30
2023-02-06T17:27:22.797Z,69.60
2023-02-06T17:29:51.456Z,59.60
2023-02-06T17:32:23.016Z,54.60
2023-02-06T17:34:53.976Z,63.40
2023-02-06T17:37:22.170Z,62.60
2023-02-06T17:39:52.134Z,60.80
2023-02-06T17:44:50.226Z,58.80
2023-02-06T17:47:18.195Z,67.20
2023-02-06T17:49:47.162Z,68.60
2023-02-06T17:52:15.347Z,60.60
2023-02-06T17:54:43.890Z,62.60
2023-02-06T17:57:13.568Z,59.30
2023-02-06T17:59:41.452Z,61.40
2023-02-06T18:02:12.815Z,57.00
2023-02-06T18:04:41.391Z,66.40
2023-02-06T18:07:09.272Z,64.70
2023-02-06T18:09:37.099Z,59.30
2023-02-06T18:12:04.969Z,58.30
2023-02-06T18:14:35.364Z,55.70
2023-02-06T18:17:03.710Z,60.30
2023-02-06T18:19:31.876Z,50.90
2023-02-06T18:22:00.193Z,62.20
2023-02-06T18:24:27.937Z,59.70
2023-02-06T18:26:55.716Z,60.40
2023-02-06T18:29:23.487Z,54.50
2023-02-06T18:31:51.361Z,63.20
2023-02-06T18:34:20.532Z,61.70
2023-02-06T18:36:48.717Z,67.90
2023-02-06T18:39:17.086Z,61.10
2023-02-06T18:42:03.748Z,63.90
2023-02-06T18:44:31.590Z,66.60
2023-02-06T18:46:59.505Z,63.80
2023-02-06T18:49:27.285Z,65.60
2023-02-06T18:51:55.106Z,72.50
2023-02-06T18:54:22.857Z,73.10
2023-02-06T18:56:50.607Z,59.60
2023-02-06T18:59:18.431Z,66.30
2023-02-06T19:01:48.226Z,74.00
2023-02-06T19:04:15.911Z,76.80
2023-02-06T19:06:44.869Z,84.70
2023-02-06T19:09:16.466Z,91.30
2023-02-06T19:11:44.189Z,106.50
2023-02-06T19:14:15.264Z,82.20
2023-02-06T19:16:47.491Z,67.60
2023-02-06T19:19:15.252Z,65.80
2023-02-06T19:21:43.433Z,67.50
2023-02-06T19:24:14.320Z,71.30
2023-02-06T19:29:13.863Z,71.10
2023-02-06T19:31:42.729Z,77.20
2023-02-06T19:34:10.915Z,72.30
2023-02-06T19:36:38.954Z,78.40
2023-02-06T19:39:09.354Z,72.90
2023-02-06T19:41:37.280Z,88.10
2023-02-06T19:44:08.588Z,89.00
2023-02-06T19:46:37.193Z,79.00
2023-02-06T19:49:08.614Z,75.50
2023-02-06T19:51:40.021Z,83.00
2023-02-06T19:54:08.424Z,68.20
2023-02-06T19:56:43.356Z,68.50
2023-02-06T19:59:18.690Z,71.10
2023-02-06T20:01:49.448Z,72.70
2023-02-06T20:04:18.873Z,62.70
2023-02-06T20:06:47.511Z,66.00
2023-02-06T20:09:16.044Z,69.20
2023-02-06T20:11:44.500Z,70.80
2023-02-06T20:14:12.655Z,75.50
2023-02-06T20:16:41.938Z,69.80
2023-02-06T20:19:27.005Z,58.00
2023-02-06T20:21:59.085Z,59.60
2023-02-06T20:24:30.358Z,64.60
2023-02-06T20:27:01.238Z,59.50
2023-02-06T20:29:32.684Z,67.70
2023-02-06T20:32:01.241Z,70.50
2023-02-06T20:34:29.642Z,55.40
2023-02-06T20:36:57.941Z,63.60
2023-02-06T20:39:26.396Z,63.20
2023-02-06T20:41:54.508Z,60.60
2023-02-06T20:44:22.629Z,59.20
2023-02-06T20:46:50.409Z,62.50
2023-02-06T20:49:27.600Z,52.80
2023-02-06T20:51:56.337Z,57.10
2023-02-06T20:54:25.040Z,64.10
2023-02-06T20:56:53.542Z,67.00
2023-02-06T20:59:21.795Z,61.30
2023-02-06T21:01:49.589Z,59.90
2023-02-06T21:04:18.515Z,53.00
2023-02-06T21:06:50.386Z,49.70
2023-02-06T21:09:18.922Z,54.00
2023-02-06T21:11:49.283Z,70.10
2023-02-06T21:14:18.261Z,51.00
2023-02-06T21:16:46.653Z,51.90
2023-02-06T21:19:16.645Z,56.20
2023-02-06T21:21:46.327Z,47.70
2023-02-06T21:24:15.739Z,58.10
2023-02-06T21:26:43.935Z,56.30
2023-02-06T21:29:14.451Z,57.60
2023-02-06T21:31:43.494Z,51.90
2023-02-06T21:34:21.297Z,50.20
2023-02-06T21:36:49.856Z,56.30
2023-02-06T21:39:21.966Z,56.30
2023-02-06T21:41:51.985Z,78.40
2023-02-06T21:44:21.009Z,104.30
2023-02-06T21:46:48.730Z,134.80
2023-02-06T21:49:17.611Z,156.90
2023-02-06T21:51:45.420Z,167.10
2023-02-06T21:54:13.139Z,179.90
2023-02-06T21:56:41.171Z,168.90
2023-02-06T21:59:10.605Z,203.60
2023-02-06T22:01:40.974Z,132.90
2023-02-06T22:04:11.374Z,45.70
2023-02-06T22:06:39.268Z,51.00
2023-02-06T22:09:10.940Z,39.80
2023-02-06T22:11:39.805Z,45.50
2023-02-06T22:14:11.329Z,43.70
2023-02-06T22:16:39.207Z,55.90
2023-02-06T22:19:07.819Z,45.90
2023-02-06T22:21:35.747Z,69.50
2023-02-06T22:24:06.403Z,59.70
2023-02-06T22:26:38.751Z,46.70
2023-02-06T22:29:08.512Z,42.70
2023-02-06T22:31:37.416Z,42.10
2023-02-06T22:34:05.249Z,57.80
2023-02-06T22:36:33.570Z,77.70
2023-02-06T22:39:07.036Z,98.80
2023-02-06T22:41:38.382Z,93.90
2023-02-06T22:44:06.205Z,55.30
2023-02-06T22:46:36.585Z,54.10
2023-02-06T22:49:05.546Z,53.30
2023-02-06T22:51:34.376Z,54.60
2023-02-06T22:54:02.532Z,44.60
2023-02-06T22:56:37.329Z,50.00
2023-02-06T22:59:12.272Z,45.80
2023-02-06T23:01:45.497Z,45.00
2023-02-06T23:04:15.774Z,47.00
2023-02-06T23:06:44.727Z,47.60
2023-02-06T23:09:16.842Z,48.70
2023-02-06T23:11:45.656Z,52.80
2023-02-06T23:14:15.340Z,49.30
2023-02-06T23:16:43.549Z,48.20
2023-02-06T23:19:13.352Z,52.90
2023-02-06T23:21:42.886Z,56.60
2023-02-06T23:24:11.677Z,59.10
2023-02-06T23:26:42.232Z,60.60
2023-02-06T23:29:15.824Z,60.70
2023-02-06T23:31:45.550Z,68.00
2023-02-06T23:34:14.291Z,55.00
2023-02-06T23:36:42.798Z,47.20
2023-02-06T23:39:11.994Z,43.40
2023-02-06T23:41:40.331Z,47.90
2023-02-06T23:44:10.169Z,47.90
2023-02-06T23:46:39.460Z,51.00
2023-02-06T23:49:08.142Z,53.80
2023-02-06T23:51:37.838Z,42.60
2023-02-06T23:54:07.736Z,50.00
2023-02-06T23:56:35.936Z,42.90
2023-02-06T23:59:05.560Z,46.40
